sensor_id;sensor_type;location;lat;lon;timestamp;P1;durP1;ratioP1;P2;durP2;ratioP2
9214;SDS011;4642;51.364;6.788;2023-05-09T00:00:01;10.77;;;8.37;;
9214;SDS011;4642;51.364;6.788;2023-05-09T00:02:27;9.03;;;7.80;;
9214;SDS011;4642;51.364;6.788;2023-05-09T00:04:53;9.20;;;7.87;;
9214;SDS011;4642;51.364;6.788;2023-05-09T00:07:20;9.13;;;8.23;;
9214;SDS011;4642;51.364;6.788;2023-05-09T00:09:46;13.20;;;9.23;;
9214;SDS011;4642;51.364;6.788;2023-05-09T00:12:11;11.17;;;8.43;;
9214;SDS011;4642;51.364;6.788;2023-05-09T00:14:37;10.00;;;9.00;;
9214;SDS011;4642;51.364;6.788;2023-05-09T00:17:04;11.10;;;9.07;;
9214;SDS011;4642;51.364;6.788;2023-05-09T00:19:31;11.93;;;8.40;;
9214;SDS011;4642;51.364;6.788;2023-05-09T00:21:57;9.33;;;8.00;;
9214;SDS011;4642;51.364;6.788;2023-05-09T00:24:23;10.60;;;8.67;;
9214;SDS011;4642;51.364;6.788;2023-05-09T00:26:48;10.40;;;9.30;;
9214;SDS011;4642;51.364;6.788;2023-05-09T00:29:14;10.63;;;8.90;;
9214;SDS011;4642;51.364;6.788;2023-05-09T00:31:39;10.43;;;9.07;;
9214;SDS011;4642;51.364;6.788;2023-05-09T00:34:05;14.80;;;9.50;;
9214;SDS011;4642;51.364;6.788;2023-05-09T00:36:31;11.27;;;9.40;;
9214;SDS011;4642;51.364;6.788;2023-05-09T00:38:56;11.43;;;10.23;;
9214;SDS011;4642;51.364;6.788;2023-05-09T00:41:22;11.37;;;10.17;;
9214;SDS011;4642;51.364;6.788;2023-05-09T00:43:47;10.50;;;9.40;;
9214;SDS011;4642;51.364;6.788;2023-05-09T00:46:13;10.47;;;9.37;;
9214;SDS011;4642;51.364;6.788;2023-05-09T00:48:39;12.97;;;9.60;;
9214;SDS011;4642;51.364;6.788;2023-05-09T00:51:04;10.87;;;9.63;;
9214;SDS011;4642;51.364;6.788;2023-05-09T00:53:30;11.30;;;10.20;;
9214;SDS011;4642;51.364;6.788;2023-05-09T00:55:56;13.07;;;10.57;;
9214;SDS011;4642;51.364;6.788;2023-05-09T00:58:24;13.07;;;10.53;;
9214;SDS011;4642;51.364;6.788;2023-05-09T01:00:49;11.10;;;9.63;;
9214;SDS011;4642;51.364;6.788;2023-05-09T01:03:15;12.17;;;10.63;;
9214;SDS011;4642;51.364;6.788;2023-05-09T01:05:43;12.93;;;10.90;;
9214;SDS011;4642;51.364;6.788;2023-05-09T01:11:22;12.47;;;9.93;;
9214;SDS011;4642;51.364;6.788;2023-05-09T01:16:40;11.83;;;10.40;;
9214;SDS011;4642;51.364;6.788;2023-05-09T01:19:16;12.33;;;11.00;;
9214;SDS011;4642;51.364;6.788;2023-05-09T01:22:15;12.50;;;10.63;;
9214;SDS011;4642;51.364;6.788;2023-05-09T01:30:09;13.80;;;11.33;;
9214;SDS011;4642;51.364;6.788;2023-05-09T01:32:37;14.00;;;11.27;;
9214;SDS011;4642;51.364;6.788;2023-05-09T01:35:04;13.03;;;11.30;;
9214;SDS011;4642;51.364;6.788;2023-05-09T01:37:32;12.97;;;11.67;;
9214;SDS011;4642;51.364;6.788;2023-05-09T01:40:03;14.17;;;12.43;;
9214;SDS011;4642;51.364;6.788;2023-05-09T01:43:09;12.80;;;11.17;;
9214;SDS011;4642;51.364;6.788;2023-05-09T01:45:32;13.50;;;10.90;;
9214;SDS011;4642;51.364;6.788;2023-05-09T01:47:59;15.70;;;12.00;;
9214;SDS011;4642;51.364;6.788;2023-05-09T01:50:26;14.07;;;11.87;;
9214;SDS011;4642;51.364;6.788;2023-05-09T01:52:54;18.27;;;12.10;;
9214;SDS011;4642;51.364;6.788;2023-05-09T01:55:24;15.80;;;12.67;;
9214;SDS011;4642;51.364;6.788;2023-05-09T01:57:51;14.70;;;12.93;;
9214;SDS011;4642;51.364;6.788;2023-05-09T02:00:18;16.33;;;13.40;;
9214;SDS011;4642;51.364;6.788;2023-05-09T02:02:44;13.80;;;12.30;;
9214;SDS011;4642;51.364;6.788;2023-05-09T02:05:10;16.87;;;13.57;;
9214;SDS011;4642;51.364;6.788;2023-05-09T02:07:37;16.20;;;13.37;;
9214;SDS011;4642;51.364;6.788;2023-05-09T02:10:06;16.27;;;13.40;;
9214;SDS011;4642;51.364;6.788;2023-05-09T02:12:33;14.67;;;12.60;;
9214;SDS011;4642;51.364;6.788;2023-05-09T02:14:59;17.63;;;13.30;;
9214;SDS011;4642;51.364;6.788;2023-05-09T02:17:24;17.23;;;13.77;;
9214;SDS011;4642;51.364;6.788;2023-05-09T02:19:50;16.10;;;13.43;;
9214;SDS011;4642;51.364;6.788;2023-05-09T02:22:16;15.60;;;13.87;;
9214;SDS011;4642;51.364;6.788;2023-05-09T02:24:42;16.73;;;13.63;;
9214;SDS011;4642;51.364;6.788;2023-05-09T02:27:11;15.87;;;13.77;;
9214;SDS011;4642;51.364;6.788;2023-05-09T02:29:40;17.03;;;13.80;;
9214;SDS011;4642;51.364;6.788;2023-05-09T02:32:14;15.40;;;12.67;;
9214;SDS011;4642;51.364;6.788;2023-05-09T02:34:40;17.50;;;13.47;;
9214;SDS011;4642;51.364;6.788;2023-05-09T02:37:08;17.67;;;13.43;;
9214;SDS011;4642;51.364;6.788;2023-05-09T02:39:34;16.30;;;13.60;;
9214;SDS011;4642;51.364;6.788;2023-05-09T02:42:10;18.33;;;14.80;;
9214;SDS011;4642;51.364;6.788;2023-05-09T02:44:37;18.37;;;14.77;;
9214;SDS011;4642;51.364;6.788;2023-05-09T02:47:03;15.37;;;13.77;;
9214;SDS011;4642;51.364;6.788;2023-05-09T02:49:30;19.30;;;13.30;;
9214;SDS011;4642;51.364;6.788;2023-05-09T02:51:56;18.93;;;14.97;;
9214;SDS011;4642;51.364;6.788;2023-05-09T02:54:21;17.63;;;15.03;;
9214;SDS011;4642;51.364;6.788;2023-05-09T02:56:47;19.33;;;14.63;;
9214;SDS011;4642;51.364;6.788;2023-05-09T02:59:12;18.67;;;14.87;;
9214;SDS011;4642;51.364;6.788;2023-05-09T03:01:39;22.90;;;15.57;;
9214;SDS011;4642;51.364;6.788;2023-05-09T03:04:05;19.50;;;15.70;;
9214;SDS011;4642;51.364;6.788;2023-05-09T03:06:30;20.50;;;15.80;;
9214;SDS011;4642;51.364;6.788;2023-05-09T03:08:56;22.40;;;17.27;;
9214;SDS011;4642;51.364;6.788;2023-05-09T03:11:22;28.43;;;19.33;;
9214;SDS011;4642;51.364;6.788;2023-05-09T03:13:47;27.20;;;18.73;;
9214;SDS011;4642;51.364;6.788;2023-05-09T03:16:13;27.20;;;19.13;;
9214;SDS011;4642;51.364;6.788;2023-05-09T03:18:41;28.20;;;20.53;;
9214;SDS011;4642;51.364;6.788;2023-05-09T03:21:07;30.30;;;19.43;;
9214;SDS011;4642;51.364;6.788;2023-05-09T03:23:32;35.73;;;23.83;;
9214;SDS011;4642;51.364;6.788;2023-05-09T03:25:58;40.60;;;25.60;;
9214;SDS011;4642;51.364;6.788;2023-05-09T03:28:23;38.13;;;24.67;;
9214;SDS011;4642;51.364;6.788;2023-05-09T03:30:49;40.00;;;26.63;;
9214;SDS011;4642;51.364;6.788;2023-05-09T03:33:15;40.97;;;27.30;;
9214;SDS011;4642;51.364;6.788;2023-05-09T03:35:40;44.00;;;28.27;;
9214;SDS011;4642;51.364;6.788;2023-05-09T03:38:06;40.47;;;26.93;;
9214;SDS011;4642;51.364;6.788;2023-05-09T03:40:31;40.80;;;26.67;;
9214;SDS011;4642;51.364;6.788;2023-05-09T03:42:57;46.10;;;28.70;;
9214;SDS011;4642;51.364;6.788;2023-05-09T03:45:23;49.03;;;30.13;;
9214;SDS011;4642;51.364;6.788;2023-05-09T03:47:48;53.37;;;30.60;;
9214;SDS011;4642;51.364;6.788;2023-05-09T03:50:14;51.27;;;29.70;;
9214;SDS011;4642;51.364;6.788;2023-05-09T03:52:40;48.30;;;30.30;;
9214;SDS011;4642;51.364;6.788;2023-05-09T03:55:05;51.13;;;31.37;;
9214;SDS011;4642;51.364;6.788;2023-05-09T03:57:31;46.20;;;29.17;;
9214;SDS011;4642;51.364;6.788;2023-05-09T03:59:58;44.43;;;27.23;;
9214;SDS011;4642;51.364;6.788;2023-05-09T04:02:23;46.37;;;26.93;;
9214;SDS011;4642;51.364;6.788;2023-05-09T04:04:49;49.33;;;28.30;;
9214;SDS011;4642;51.364;6.788;2023-05-09T04:07:16;52.77;;;30.73;;
9214;SDS011;4642;51.364;6.788;2023-05-09T04:09:42;52.87;;;29.93;;
9214;SDS011;4642;51.364;6.788;2023-05-09T04:12:11;41.57;;;25.83;;
9214;SDS011;4642;51.364;6.788;2023-05-09T04:14:37;40.10;;;26.70;;
9214;SDS011;4642;51.364;6.788;2023-05-09T04:17:03;44.63;;;26.90;;
9214;SDS011;4642;51.364;6.788;2023-05-09T04:19:28;43.77;;;24.33;;
9214;SDS011;4642;51.364;6.788;2023-05-09T04:21:54;40.87;;;24.60;;
9214;SDS011;4642;51.364;6.788;2023-05-09T04:24:20;39.03;;;23.70;;
9214;SDS011;4642;51.364;6.788;2023-05-09T04:26:46;37.60;;;22.50;;
9214;SDS011;4642;51.364;6.788;2023-05-09T04:29:11;35.03;;;21.97;;
9214;SDS011;4642;51.364;6.788;2023-05-09T04:31:37;33.57;;;23.17;;
9214;SDS011;4642;51.364;6.788;2023-05-09T04:34:03;32.47;;;21.10;;
9214;SDS011;4642;51.364;6.788;2023-05-09T04:36:28;29.80;;;21.07;;
9214;SDS011;4642;51.364;6.788;2023-05-09T04:38:55;31.20;;;20.93;;
9214;SDS011;4642;51.364;6.788;2023-05-09T04:41:21;29.23;;;21.10;;
9214;SDS011;4642;51.364;6.788;2023-05-09T04:43:46;35.40;;;22.67;;
9214;SDS011;4642;51.364;6.788;2023-05-09T04:46:12;32.73;;;21.60;;
9214;SDS011;4642;51.364;6.788;2023-05-09T04:48:37;31.63;;;20.57;;
9214;SDS011;4642;51.364;6.788;2023-05-09T04:51:03;29.47;;;20.13;;
9214;SDS011;4642;51.364;6.788;2023-05-09T04:53:29;28.97;;;21.97;;
9214;SDS011;4642;51.364;6.788;2023-05-09T04:55:54;31.33;;;20.63;;
9214;SDS011;4642;51.364;6.788;2023-05-09T04:58:20;32.33;;;20.73;;
9214;SDS011;4642;51.364;6.788;2023-05-09T05:00:45;31.57;;;21.30;;
9214;SDS011;4642;51.364;6.788;2023-05-09T05:03:20;32.37;;;20.93;;
9214;SDS011;4642;51.364;6.788;2023-05-09T05:06:01;36.23;;;22.33;;
9214;SDS011;4642;51.364;6.788;2023-05-09T05:08:27;34.43;;;21.97;;
9214;SDS011;4642;51.364;6.788;2023-05-09T05:10:52;38.37;;;22.77;;
9214;SDS011;4642;51.364;6.788;2023-05-09T05:13:18;35.87;;;21.80;;
9214;SDS011;4642;51.364;6.788;2023-05-09T05:15:45;37.43;;;23.07;;
9214;SDS011;4642;51.364;6.788;2023-05-09T05:18:10;30.93;;;21.30;;
9214;SDS011;4642;51.364;6.788;2023-05-09T05:20:36;34.80;;;22.50;;
9214;SDS011;4642;51.364;6.788;2023-05-09T05:23:04;39.20;;;22.57;;
9214;SDS011;4642;51.364;6.788;2023-05-09T05:25:30;39.50;;;23.37;;
9214;SDS011;4642;51.364;6.788;2023-05-09T05:27:55;42.43;;;23.30;;
9214;SDS011;4642;51.364;6.788;2023-05-09T05:30:21;42.97;;;23.73;;
9214;SDS011;4642;51.364;6.788;2023-05-09T05:32:46;46.93;;;27.03;;
9214;SDS011;4642;51.364;6.788;2023-05-09T05:35:12;45.67;;;24.20;;
9214;SDS011;4642;51.364;6.788;2023-05-09T05:37:38;49.27;;;26.27;;
9214;SDS011;4642;51.364;6.788;2023-05-09T05:40:04;53.20;;;27.30;;
9214;SDS011;4642;51.364;6.788;2023-05-09T05:42:30;61.13;;;28.73;;
9214;SDS011;4642;51.364;6.788;2023-05-09T05:44:56;54.10;;;28.07;;
9214;SDS011;4642;51.364;6.788;2023-05-09T05:47:25;46.67;;;27.23;;
9214;SDS011;4642;51.364;6.788;2023-05-09T05:49:50;51.53;;;28.00;;
9214;SDS011;4642;51.364;6.788;2023-05-09T05:52:16;53.77;;;26.60;;
9214;SDS011;4642;51.364;6.788;2023-05-09T05:54:41;52.33;;;27.47;;
9214;SDS011;4642;51.364;6.788;2023-05-09T05:57:07;47.00;;;25.20;;
9214;SDS011;4642;51.364;6.788;2023-05-09T05:59:32;55.07;;;27.07;;
9214;SDS011;4642;51.364;6.788;2023-05-09T06:01:58;52.57;;;26.73;;
9214;SDS011;4642;51.364;6.788;2023-05-09T06:04:23;48.47;;;26.83;;
9214;SDS011;4642;51.364;6.788;2023-05-09T06:06:49;47.83;;;25.07;;
9214;SDS011;4642;51.364;6.788;2023-05-09T06:09:15;46.17;;;24.67;;
9214;SDS011;4642;51.364;6.788;2023-05-09T06:11:40;44.30;;;24.13;;
9214;SDS011;4642;51.364;6.788;2023-05-09T06:14:06;35.27;;;20.97;;
9214;SDS011;4642;51.364;6.788;2023-05-09T06:16:31;30.47;;;20.77;;
9214;SDS011;4642;51.364;6.788;2023-05-09T06:18:57;30.80;;;20.83;;
9214;SDS011;4642;51.364;6.788;2023-05-09T06:21:22;36.67;;;22.30;;
9214;SDS011;4642;51.364;6.788;2023-05-09T06:23:48;28.00;;;21.83;;
9214;SDS011;4642;51.364;6.788;2023-05-09T06:26:13;29.97;;;21.43;;
9214;SDS011;4642;51.364;6.788;2023-05-09T06:28:39;29.57;;;20.13;;
9214;SDS011;4642;51.364;6.788;2023-05-09T06:31:05;33.17;;;20.97;;
9214;SDS011;4642;51.364;6.788;2023-05-09T06:33:31;26.47;;;20.37;;
9214;SDS011;4642;51.364;6.788;2023-05-09T06:35:57;25.00;;;18.27;;
9214;SDS011;4642;51.364;6.788;2023-05-09T06:38:24;22.63;;;17.80;;
9214;SDS011;4642;51.364;6.788;2023-05-09T06:40:49;23.30;;;16.10;;
9214;SDS011;4642;51.364;6.788;2023-05-09T06:43:15;22.50;;;17.30;;
9214;SDS011;4642;51.364;6.788;2023-05-09T06:45:40;18.20;;;16.30;;
9214;SDS011;4642;51.364;6.788;2023-05-09T06:48:06;22.77;;;16.23;;
9214;SDS011;4642;51.364;6.788;2023-05-09T06:50:31;20.23;;;15.83;;
9214;SDS011;4642;51.364;6.788;2023-05-09T06:52:57;19.17;;;14.67;;
9214;SDS011;4642;51.364;6.788;2023-05-09T06:55:22;18.07;;;15.20;;
9214;SDS011;4642;51.364;6.788;2023-05-09T06:57:48;17.70;;;15.27;;
9214;SDS011;4642;51.364;6.788;2023-05-09T07:00:14;19.83;;;15.73;;
9214;SDS011;4642;51.364;6.788;2023-05-09T07:02:40;20.60;;;16.53;;
9214;SDS011;4642;51.364;6.788;2023-05-09T07:05:06;19.57;;;16.37;;
9214;SDS011;4642;51.364;6.788;2023-05-09T07:07:33;20.00;;;15.67;;
9214;SDS011;4642;51.364;6.788;2023-05-09T07:09:58;18.20;;;15.07;;
9214;SDS011;4642;51.364;6.788;2023-05-09T07:12:25;18.77;;;16.20;;
9214;SDS011;4642;51.364;6.788;2023-05-09T07:14:50;16.47;;;14.77;;
9214;SDS011;4642;51.364;6.788;2023-05-09T07:17:16;16.13;;;14.43;;
9214;SDS011;4642;51.364;6.788;2023-05-09T07:19:41;18.47;;;14.37;;
9214;SDS011;4642;51.364;6.788;2023-05-09T07:22:07;17.03;;;13.57;;
9214;SDS011;4642;51.364;6.788;2023-05-09T07:24:32;14.30;;;12.80;;
9214;SDS011;4642;51.364;6.788;2023-05-09T07:27:00;16.87;;;13.20;;
9214;SDS011;4642;51.364;6.788;2023-05-09T07:29:27;19.00;;;14.53;;
9214;SDS011;4642;51.364;6.788;2023-05-09T07:31:53;15.27;;;12.27;;
9214;SDS011;4642;51.364;6.788;2023-05-09T07:34:18;14.87;;;12.93;;
9214;SDS011;4642;51.364;6.788;2023-05-09T07:36:44;17.17;;;12.67;;
9214;SDS011;4642;51.364;6.788;2023-05-09T07:39:10;15.67;;;13.60;;
9214;SDS011;4642;51.364;6.788;2023-05-09T07:41:35;14.87;;;13.33;;
9214;SDS011;4642;51.364;6.788;2023-05-09T07:44:01;15.33;;;13.27;;
9214;SDS011;4642;51.364;6.788;2023-05-09T07:46:26;15.57;;;12.70;;
9214;SDS011;4642;51.364;6.788;2023-05-09T07:48:52;17.73;;;13.73;;
9214;SDS011;4642;51.364;6.788;2023-05-09T07:51:17;16.33;;;12.47;;
9214;SDS011;4642;51.364;6.788;2023-05-09T07:53:43;15.30;;;12.37;;
9214;SDS011;4642;51.364;6.788;2023-05-09T07:56:08;14.73;;;13.13;;
9214;SDS011;4642;51.364;6.788;2023-05-09T07:58:34;15.37;;;12.50;;
9214;SDS011;4642;51.364;6.788;2023-05-09T08:00:59;16.97;;;12.90;;
9214;SDS011;4642;51.364;6.788;2023-05-09T08:03:25;14.83;;;12.67;;
9214;SDS011;4642;51.364;6.788;2023-05-09T08:05:54;12.00;;;10.60;;
9214;SDS011;4642;51.364;6.788;2023-05-09T08:08:20;13.60;;;11.07;;
9214;SDS011;4642;51.364;6.788;2023-05-09T08:10:46;18.77;;;11.47;;
9214;SDS011;4642;51.364;6.788;2023-05-09T08:13:12;11.63;;;10.40;;
9214;SDS011;4642;51.364;6.788;2023-05-09T08:15:37;13.03;;;10.03;;
9214;SDS011;4642;51.364;6.788;2023-05-09T08:18:03;10.77;;;9.67;;
9214;SDS011;4642;51.364;6.788;2023-05-09T08:20:29;13.23;;;9.27;;
9214;SDS011;4642;51.364;6.788;2023-05-09T08:22:55;9.73;;;8.47;;
9214;SDS011;4642;51.364;6.788;2023-05-09T08:25:21;14.97;;;9.83;;
9214;SDS011;4642;51.364;6.788;2023-05-09T08:27:46;11.73;;;9.50;;
9214;SDS011;4642;51.364;6.788;2023-05-09T08:30:12;11.77;;;9.30;;
9214;SDS011;4642;51.364;6.788;2023-05-09T08:32:38;9.90;;;8.90;;
9214;SDS011;4642;51.364;6.788;2023-05-09T08:35:04;9.07;;;8.03;;
9214;SDS011;4642;51.364;6.788;2023-05-09T08:37:30;9.93;;;8.27;;
9214;SDS011;4642;51.364;6.788;2023-05-09T08:39:56;8.93;;;7.47;;
9214;SDS011;4642;51.364;6.788;2023-05-09T08:42:21;8.77;;;7.23;;
9214;SDS011;4642;51.364;6.788;2023-05-09T08:44:48;9.57;;;6.77;;
9214;SDS011;4642;51.364;6.788;2023-05-09T08:47:13;12.60;;;6.93;;
9214;SDS011;4642;51.364;6.788;2023-05-09T08:49:40;10.57;;;6.80;;
9214;SDS011;4642;51.364;6.788;2023-05-09T08:52:05;6.97;;;6.27;;
9214;SDS011;4642;51.364;6.788;2023-05-09T08:54:31;6.93;;;5.60;;
9214;SDS011;4642;51.364;6.788;2023-05-09T08:56:57;7.50;;;5.93;;
9214;SDS011;4642;51.364;6.788;2023-05-09T08:59:25;5.40;;;4.90;;
9214;SDS011;4642;51.364;6.788;2023-05-09T09:01:52;7.53;;;4.90;;
9214;SDS011;4642;51.364;6.788;2023-05-09T09:04:17;5.20;;;4.50;;
9214;SDS011;4642;51.364;6.788;2023-05-09T09:06:43;6.53;;;5.13;;
9214;SDS011;4642;51.364;6.788;2023-05-09T09:09:10;5.90;;;4.37;;
9214;SDS011;4642;51.364;6.788;2023-05-09T09:11:36;6.93;;;4.70;;
9214;SDS011;4642;51.364;6.788;2023-05-09T09:14:11;9.07;;;5.30;;
9214;SDS011;4642;51.364;6.788;2023-05-09T09:16:40;8.77;;;5.13;;
9214;SDS011;4642;51.364;6.788;2023-05-09T09:19:11;6.70;;;5.83;;
9214;SDS011;4642;51.364;6.788;2023-05-09T09:21:40;7.13;;;5.37;;
9214;SDS011;4642;51.364;6.788;2023-05-09T09:24:08;5.07;;;4.17;;
9214;SDS011;4642;51.364;6.788;2023-05-09T09:26:44;6.13;;;4.33;;
9214;SDS011;4642;51.364;6.788;2023-05-09T09:29:12;6.77;;;4.30;;
9214;SDS011;4642;51.364;6.788;2023-05-09T09:31:38;4.97;;;3.93;;
9214;SDS011;4642;51.364;6.788;2023-05-09T09:34:03;6.87;;;3.97;;
9214;SDS011;4642;51.364;6.788;2023-05-09T09:36:30;5.83;;;3.77;;
9214;SDS011;4642;51.364;6.788;2023-05-09T09:39:01;5.90;;;4.20;;
9214;SDS011;4642;51.364;6.788;2023-05-09T09:41:32;5.73;;;3.67;;
9214;SDS011;4642;51.364;6.788;2023-05-09T09:43:58;5.23;;;3.40;;
9214;SDS011;4642;51.364;6.788;2023-05-09T09:46:41;5.73;;;3.20;;
9214;SDS011;4642;51.364;6.788;2023-05-09T09:49:20;4.70;;;2.97;;
9214;SDS011;4642;51.364;6.788;2023-05-09T09:51:51;6.60;;;2.63;;
9214;SDS011;4642;51.364;6.788;2023-05-09T09:54:18;3.93;;;2.77;;
9214;SDS011;4642;51.364;6.788;2023-05-09T09:56:45;5.23;;;2.30;;
9214;SDS011;4642;51.364;6.788;2023-05-09T09:59:13;4.43;;;3.27;;
9214;SDS011;4642;51.364;6.788;2023-05-09T10:04:26;4.40;;;2.77;;
9214;SDS011;4642;51.364;6.788;2023-05-09T10:07:00;3.20;;;2.50;;
9214;SDS011;4642;51.364;6.788;2023-05-09T10:09:29;9.40;;;2.70;;
9214;SDS011;4642;51.364;6.788;2023-05-09T10:11:54;5.67;;;3.03;;
9214;SDS011;4642;51.364;6.788;2023-05-09T10:14:22;4.33;;;2.77;;
9214;SDS011;4642;51.364;6.788;2023-05-09T10:16:49;5.17;;;2.57;;
9214;SDS011;4642;51.364;6.788;2023-05-09T10:19:17;2.67;;;2.27;;
9214;SDS011;4642;51.364;6.788;2023-05-09T10:21:52;3.00;;;2.70;;
9214;SDS011;4642;51.364;6.788;2023-05-09T10:24:20;5.50;;;3.00;;
9214;SDS011;4642;51.364;6.788;2023-05-09T10:27:05;2.93;;;2.57;;
9214;SDS011;4642;51.364;6.788;2023-05-09T10:29:37;2.93;;;2.23;;
9214;SDS011;4642;51.364;6.788;2023-05-09T10:34:41;4.10;;;2.50;;
9214;SDS011;4642;51.364;6.788;2023-05-09T10:37:10;5.30;;;2.10;;
9214;SDS011;4642;51.364;6.788;2023-05-09T10:39:37;3.00;;;2.33;;
9214;SDS011;4642;51.364;6.788;2023-05-09T10:42:04;4.80;;;2.50;;
9214;SDS011;4642;51.364;6.788;2023-05-09T10:44:31;3.43;;;2.27;;
9214;SDS011;4642;51.364;6.788;2023-05-09T10:46:58;2.80;;;2.10;;
9214;SDS011;4642;51.364;6.788;2023-05-09T10:49:24;3.47;;;2.20;;
9214;SDS011;4642;51.364;6.788;2023-05-09T10:51:50;2.97;;;2.10;;
9214;SDS011;4642;51.364;6.788;2023-05-09T10:54:26;2.30;;;2.10;;
9214;SDS011;4642;51.364;6.788;2023-05-09T10:56:53;3.37;;;2.03;;
9214;SDS011;4642;51.364;6.788;2023-05-09T10:59:36;3.90;;;2.30;;
9214;SDS011;4642;51.364;6.788;2023-05-09T11:02:04;7.00;;;2.30;;
9214;SDS011;4642;51.364;6.788;2023-05-09T11:04:30;2.27;;;2.00;;
9214;SDS011;4642;51.364;6.788;2023-05-09T11:06:57;3.03;;;2.07;;
9214;SDS011;4642;51.364;6.788;2023-05-09T11:09:24;4.13;;;2.17;;
9214;SDS011;4642;51.364;6.788;2023-05-09T11:12:00;3.50;;;2.03;;
9214;SDS011;4642;51.364;6.788;2023-05-09T11:14:32;3.07;;;2.50;;
9214;SDS011;4642;51.364;6.788;2023-05-09T11:16:58;2.40;;;2.20;;
9214;SDS011;4642;51.364;6.788;2023-05-09T11:22:13;3.10;;;2.20;;
9214;SDS011;4642;51.364;6.788;2023-05-09T11:24:47;2.97;;;2.10;;
9214;SDS011;4642;51.364;6.788;2023-05-09T11:27:20;3.03;;;2.13;;
9214;SDS011;4642;51.364;6.788;2023-05-09T11:29:51;3.23;;;2.27;;
9214;SDS011;4642;51.364;6.788;2023-05-09T11:32:19;4.93;;;2.50;;
9214;SDS011;4642;51.364;6.788;2023-05-09T11:34:45;2.57;;;2.30;;
9214;SDS011;4642;51.364;6.788;2023-05-09T11:37:12;3.13;;;2.63;;
9214;SDS011;4642;51.364;6.788;2023-05-09T11:39:56;5.23;;;2.57;;
9214;SDS011;4642;51.364;6.788;2023-05-09T11:42:27;3.10;;;2.70;;
9214;SDS011;4642;51.364;6.788;2023-05-09T11:44:54;2.77;;;2.33;;
9214;SDS011;4642;51.364;6.788;2023-05-09T11:47:21;3.43;;;2.33;;
9214;SDS011;4642;51.364;6.788;2023-05-09T11:49:49;4.50;;;2.40;;
9214;SDS011;4642;51.364;6.788;2023-05-09T11:52:17;2.80;;;2.50;;
9214;SDS011;4642;51.364;6.788;2023-05-09T11:54:43;4.30;;;1.93;;
9214;SDS011;4642;51.364;6.788;2023-05-09T11:57:09;2.93;;;2.50;;
9214;SDS011;4642;51.364;6.788;2023-05-09T11:59:41;3.90;;;2.00;;
9214;SDS011;4642;51.364;6.788;2023-05-09T12:02:07;2.30;;;1.97;;
9214;SDS011;4642;51.364;6.788;2023-05-09T12:04:33;3.73;;;2.40;;
9214;SDS011;4642;51.364;6.788;2023-05-09T12:06:59;2.40;;;2.00;;
9214;SDS011;4642;51.364;6.788;2023-05-09T12:09:29;2.60;;;1.87;;
9214;SDS011;4642;51.364;6.788;2023-05-09T12:12:01;4.27;;;2.07;;
9214;SDS011;4642;51.364;6.788;2023-05-09T12:14:34;3.47;;;2.10;;
9214;SDS011;4642;51.364;6.788;2023-05-09T12:17:00;3.93;;;1.93;;
9214;SDS011;4642;51.364;6.788;2023-05-09T12:19:26;3.37;;;1.70;;
9214;SDS011;4642;51.364;6.788;2023-05-09T12:21:58;1.57;;;1.30;;
9214;SDS011;4642;51.364;6.788;2023-05-09T12:24:30;3.43;;;1.40;;
9214;SDS011;4642;51.364;6.788;2023-05-09T12:26:58;2.43;;;1.53;;
9214;SDS011;4642;51.364;6.788;2023-05-09T12:29:24;3.37;;;1.63;;
9214;SDS011;4642;51.364;6.788;2023-05-09T12:31:51;1.93;;;1.50;;
9214;SDS011;4642;51.364;6.788;2023-05-09T12:34:17;3.13;;;2.00;;
9214;SDS011;4642;51.364;6.788;2023-05-09T12:36:43;3.40;;;1.70;;
9214;SDS011;4642;51.364;6.788;2023-05-09T12:39:15;2.30;;;1.43;;
9214;SDS011;4642;51.364;6.788;2023-05-09T12:41:48;2.60;;;1.67;;
9214;SDS011;4642;51.364;6.788;2023-05-09T12:44:22;2.70;;;1.80;;
9214;SDS011;4642;51.364;6.788;2023-05-09T12:46:54;3.90;;;1.73;;
9214;SDS011;4642;51.364;6.788;2023-05-09T12:49:27;1.83;;;1.50;;
9214;SDS011;4642;51.364;6.788;2023-05-09T12:51:54;4.20;;;1.80;;
9214;SDS011;4642;51.364;6.788;2023-05-09T12:54:24;1.80;;;1.67;;
9214;SDS011;4642;51.364;6.788;2023-05-09T12:56:52;3.20;;;2.20;;
9214;SDS011;4642;51.364;6.788;2023-05-09T12:59:29;4.03;;;1.60;;
9214;SDS011;4642;51.364;6.788;2023-05-09T13:01:56;1.70;;;1.60;;
9214;SDS011;4642;51.364;6.788;2023-05-09T13:04:23;9.43;;;4.47;;
9214;SDS011;4642;51.364;6.788;2023-05-09T13:06:52;5.00;;;3.80;;
9214;SDS011;4642;51.364;6.788;2023-05-09T13:09:19;6.60;;;3.57;;
9214;SDS011;4642;51.364;6.788;2023-05-09T13:11:46;5.30;;;3.80;;
9214;SDS011;4642;51.364;6.788;2023-05-09T13:14:12;4.87;;;3.70;;
9214;SDS011;4642;51.364;6.788;2023-05-09T13:16:38;5.80;;;3.43;;
9214;SDS011;4642;51.364;6.788;2023-05-09T13:19:04;4.77;;;3.70;;
9214;SDS011;4642;51.364;6.788;2023-05-09T13:21:31;3.27;;;2.97;;
9214;SDS011;4642;51.364;6.788;2023-05-09T13:23:56;5.57;;;3.60;;
9214;SDS011;4642;51.364;6.788;2023-05-09T13:26:22;5.07;;;3.57;;
9214;SDS011;4642;51.364;6.788;2023-05-09T13:28:48;4.37;;;3.97;;
9214;SDS011;4642;51.364;6.788;2023-05-09T13:31:13;7.50;;;5.27;;
9214;SDS011;4642;51.364;6.788;2023-05-09T13:33:39;12.40;;;5.30;;
9214;SDS011;4642;51.364;6.788;2023-05-09T13:36:04;18.90;;;7.87;;
9214;SDS011;4642;51.364;6.788;2023-05-09T13:38:38;14.50;;;8.93;;
9214;SDS011;4642;51.364;6.788;2023-05-09T13:41:05;14.27;;;8.93;;
9214;SDS011;4642;51.364;6.788;2023-05-09T13:43:31;9.67;;;6.80;;
9214;SDS011;4642;51.364;6.788;2023-05-09T13:45:57;7.53;;;6.10;;
9214;SDS011;4642;51.364;6.788;2023-05-09T13:48:22;12.17;;;6.70;;
9214;SDS011;4642;51.364;6.788;2023-05-09T13:50:48;7.70;;;6.17;;
9214;SDS011;4642;51.364;6.788;2023-05-09T13:53:14;8.60;;;6.03;;
9214;SDS011;4642;51.364;6.788;2023-05-09T13:55:40;7.17;;;5.60;;
9214;SDS011;4642;51.364;6.788;2023-05-09T13:58:06;7.63;;;5.57;;
9214;SDS011;4642;51.364;6.788;2023-05-09T14:00:32;8.67;;;5.80;;
9214;SDS011;4642;51.364;6.788;2023-05-09T14:02:57;11.23;;;7.50;;
9214;SDS011;4642;51.364;6.788;2023-05-09T14:05:23;11.37;;;6.70;;
9214;SDS011;4642;51.364;6.788;2023-05-09T14:07:49;10.00;;;7.53;;
9214;SDS011;4642;51.364;6.788;2023-05-09T14:10:15;10.07;;;7.63;;
9214;SDS011;4642;51.364;6.788;2023-05-09T14:12:41;15.10;;;8.00;;
9214;SDS011;4642;51.364;6.788;2023-05-09T14:15:08;11.47;;;7.00;;
9214;SDS011;4642;51.364;6.788;2023-05-09T14:17:34;12.97;;;7.40;;
9214;SDS011;4642;51.364;6.788;2023-05-09T14:20:00;10.37;;;7.13;;
9214;SDS011;4642;51.364;6.788;2023-05-09T14:22:25;10.53;;;7.00;;
9214;SDS011;4642;51.364;6.788;2023-05-09T14:24:52;8.33;;;6.97;;
9214;SDS011;4642;51.364;6.788;2023-05-09T14:27:18;10.90;;;6.83;;
9214;SDS011;4642;51.364;6.788;2023-05-09T14:29:44;9.27;;;7.27;;
9214;SDS011;4642;51.364;6.788;2023-05-09T14:32:09;9.17;;;6.67;;
9214;SDS011;4642;51.364;6.788;2023-05-09T14:34:37;7.80;;;6.50;;
9214;SDS011;4642;51.364;6.788;2023-05-09T14:37:03;9.13;;;6.47;;
9214;SDS011;4642;51.364;6.788;2023-05-09T14:39:28;9.13;;;6.00;;
9214;SDS011;4642;51.364;6.788;2023-05-09T14:41:54;6.83;;;5.23;;
9214;SDS011;4642;51.364;6.788;2023-05-09T14:44:20;6.27;;;5.40;;
9214;SDS011;4642;51.364;6.788;2023-05-09T14:46:48;4.90;;;4.40;;
9214;SDS011;4642;51.364;6.788;2023-05-09T14:49:14;4.90;;;4.40;;
9214;SDS011;4642;51.364;6.788;2023-05-09T14:51:39;6.20;;;5.07;;
9214;SDS011;4642;51.364;6.788;2023-05-09T14:54:05;5.57;;;4.60;;
9214;SDS011;4642;51.364;6.788;2023-05-09T14:56:30;7.63;;;5.57;;
9214;SDS011;4642;51.364;6.788;2023-05-09T14:58:56;6.33;;;5.33;;
9214;SDS011;4642;51.364;6.788;2023-05-09T15:01:21;6.47;;;4.37;;
9214;SDS011;4642;51.364;6.788;2023-05-09T15:03:47;6.13;;;4.53;;
9214;SDS011;4642;51.364;6.788;2023-05-09T15:06:12;7.73;;;5.23;;
9214;SDS011;4642;51.364;6.788;2023-05-09T15:08:38;6.17;;;4.97;;
9214;SDS011;4642;51.364;6.788;2023-05-09T15:11:04;6.03;;;5.40;;
9214;SDS011;4642;51.364;6.788;2023-05-09T15:13:29;6.80;;;5.20;;
9214;SDS011;4642;51.364;6.788;2023-05-09T15:15:55;6.90;;;5.17;;
9214;SDS011;4642;51.364;6.788;2023-05-09T15:18:21;5.90;;;5.37;;